Time;durP1;ratioP1;P1;durP2;ratioP2;P2;SDS_P1;SDS_P2;PMS_P1;PMS_P2;Temp;Humidity;BMP_temperature;BMP_pressure;BME280_temperature;BME280_humidity;BME280_pressure;Samples;Min_cycle;Max_cycle;Signal;HPM_P1;HPM_P2
2022/10/10 00:01:13;;;;;;;7.70;2.80;;;;;;;6.78;82.10;101079.55;105090;1294;72589;-78
2022/10/10 00:03:40;;;;;;;5.20;2.90;;;;;;;6.74;82.42;101076.58;105311;1293;59975;-78
2022/10/10 00:06:07;;;;;;;6.80;2.80;;;;;;;6.71;82.28;101077.59;105306;1289;59210;-79
2022/10/10 00:08:34;;;;;;;4.80;2.40;;;;;;;6.65;82.19;101070.01;105190;1293;74846;-79
2022/10/10 00:11:01;;;;;;;10.20;2.40;;;;;;;6.58;82.32;101066.44;105228;1293;70172;-79
2022/10/10 00:13:27;;;;;;;7.00;2.40;;;;;;;6.51;82.40;101062.14;105157;1292;71612;-79
2022/10/10 00:15:54;;;;;;;5.70;2.50;;;;;;;6.46;82.67;101059.45;105322;1289;59199;-79
2022/10/10 00:18:20;;;;;;;8.90;2.50;;;;;;;6.42;82.88;101057.02;105318;1297;58371;-79
2022/10/10 00:20:50;;;;;;;10.70;2.50;;;;;;;6.36;83.14;101048.05;105362;1290;72972;-79
2022/10/10 00:23:17;;;;;;;7.00;2.70;;;;;;;6.32;83.65;101046.96;105144;1292;69535;-79
2022/10/10 00:25:44;;;;;;;5.90;2.30;;;;;;;6.29;84.14;101040.89;105305;1297;71184;-78
2022/10/10 00:28:11;;;;;;;10.70;2.60;;;;;;;6.28;84.23;101040.47;105201;1292;59655;-80
2022/10/10 00:30:38;;;;;;;7.50;2.70;;;;;;;6.29;84.33;101042.69;105178;1297;59750;-79
2022/10/10 00:33:05;;;;;;;4.80;2.30;;;;;;;6.29;84.39;101042.16;105243;1292;74198;-80
2022/10/10 00:35:32;;;;;;;8.10;2.90;;;;;;;6.31;84.51;101042.39;105151;1299;71343;-78
2022/10/10 00:37:58;;;;;;;7.70;2.70;;;;;;;6.30;84.47;101039.25;105226;1286;72432;-79
2022/10/10 00:40:25;;;;;;;6.90;2.90;;;;;;;6.29;84.61;101035.64;105332;1289;59152;-79
2022/10/10 00:42:52;;;;;;;7.10;2.50;;;;;;;6.28;84.35;101039.64;105153;1297;61980;-79
2022/10/10 00:45:30;;;;;;;5.30;2.50;;;;;;;6.25;84.37;101039.03;105335;1297;73792;-79
2022/10/10 00:48:03;;;;;;;7.00;2.50;;;;;;;6.22;84.28;101033.48;105580;1292;69650;-79
2022/10/10 00:50:32;;;;;;;6.30;2.50;;;;;;;6.20;84.28;101035.15;105585;1293;72465;-79
2022/10/10 00:52:59;;;;;;;6.30;2.60;;;;;;;6.17;84.36;101034.01;105481;1290;62240;-79
2022/10/10 00:55:26;;;;;;;9.30;2.70;;;;;;;6.12;84.53;101029.81;105212;1296;59436;-80
2022/10/10 00:57:53;;;;;;;5.20;2.40;;;;;;;6.08;84.55;101025.23;105155;1290;72601;-79
2022/10/10 01:00:20;;;;;;;7.00;2.40;;;;;;;6.06;84.68;101028.92;105315;1297;69094;-79
2022/10/10 01:02:46;;;;;;;5.50;2.50;;;;;;;6.04;84.77;101025.08;105134;1299;70455;-78
2022/10/10 01:05:13;;;;;;;7.60;2.50;;;;;;;6.02;84.97;101022.29;105290;1297;60484;-79
2022/10/10 01:07:41;;;;;;;8.00;2.70;;;;;;;5.99;85.04;101021.65;105313;1290;59133;-78
2022/10/10 01:10:12;;;;;;;6.40;2.50;;;;;;;5.98;85.09;101015.67;105181;1293;75107;-79
2022/10/10 01:13:00;;;;;;;5.80;2.20;;;;;;;5.97;85.22;101016.81;105208;1299;69549;-79
2022/10/10 01:15:45;;;;;;;7.40;2.80;;;;;;;5.95;85.26;101015.56;105320;1283;71249;-79
2022/10/10 01:18:37;;;;;;;6.30;2.20;;;;;;;5.89;85.12;101010.60;105346;1293;61380;-79
2022/10/10 01:21:50;;;;;;;8.10;2.60;;;;;;;5.89;85.30;101017.42;105514;1289;59723;-79
2022/10/10 01:24:41;;;;;;;6.70;2.40;;;;;;;5.85;85.27;101012.71;105245;1293;74734;-79
2022/10/10 01:27:28;;;;;;;5.20;2.50;;;;;;;5.82;85.41;101007.39;105393;1296;71256;-79
2022/10/10 01:30:05;;;;;;;10.20;2.60;;;;;;;5.80;85.64;101004.74;105246;1292;71968;-78
2022/10/10 01:32:57;;;;;;;8.00;2.60;;;;;;;5.78;85.88;100998.80;105160;1297;60974;-78
2022/10/10 01:35:29;;;;;;;8.90;2.80;;;;;;;5.75;85.92;100996.60;105257;1291;59913;-78
2022/10/10 01:38:09;;;;;;;8.00;2.90;;;;;;;5.73;86.04;100992.39;105375;1297;73118;-78
2022/10/10 01:41:07;;;;;;;5.90;2.40;;;;;;;5.72;86.27;100988.53;105315;1292;69960;-78
2022/10/10 01:43:35;;;;;;;6.40;2.60;;;;;;;5.71;86.48;100984.59;105315;1297;72428;-78
2022/10/10 01:46:14;;;;;;;6.80;2.60;;;;;;;5.70;86.41;100980.82;105277;1289;59666;-78
2022/10/10 01:48:44;;;;;;;9.10;3.00;;;;;;;5.70;86.52;100980.98;105347;1297;59522;-79
2022/10/10 01:51:19;;;;;;;7.40;2.70;;;;;;;5.70;86.88;100979.27;105318;1297;75568;-78
2022/10/10 01:54:21;;;;;;;7.60;2.70;;;;;;;5.70;86.99;100974.20;105436;1289;71292;-78
2022/10/10 01:56:58;;;;;;;7.00;2.80;;;;;;;5.70;86.99;100969.09;105409;1294;73749;-79
2022/10/10 01:59:42;;;;;;;7.40;2.70;;;;;;;5.69;86.90;100967.80;105291;1295;60185;-79
2022/10/10 02:02:30;;;;;;;6.80;2.40;;;;;;;5.68;86.88;100962.75;105459;1297;59264;-79
2022/10/10 02:05:14;;;;;;;8.20;2.60;;;;;;;5.67;86.88;100963.93;105320;1297;74533;-79
2022/10/10 02:07:54;;;;;;;7.20;2.70;;;;;;;5.66;86.87;100959.46;105363;1290;70644;-78
2022/10/10 02:10:27;;;;;;;7.70;2.60;;;;;;;5.64;86.80;100956.96;105266;1292;72203;-79
2022/10/10 02:12:56;;;;;;;6.30;2.50;;;;;;;5.62;86.91;100955.63;105251;1300;59784;-79
2022/10/10 02:15:25;;;;;;;8.90;2.60;;;;;;;5.60;86.98;100956.17;105228;1292;60137;-78
2022/10/10 02:17:55;;;;;;;6.30;2.80;;;;;;;5.58;87.13;100949.48;105265;1297;73950;-79
2022/10/10 02:20:24;;;;;;;7.50;2.60;;;;;;;5.57;87.30;100948.50;105403;1304;69415;-79
2022/10/10 02:22:52;;;;;;;6.40;2.80;;;;;;;5.56;87.44;100943.84;105181;1300;73734;-79
2022/10/10 02:25:30;;;;;;;8.60;3.00;;;;;;;5.56;87.66;100940.38;105216;1290;60159;-79
2022/10/10 02:28:15;;;;;;;6.20;2.70;;;;;;;5.55;88.53;100936.19;105244;1299;59469;-78
2022/10/10 02:30:45;;;;;;;6.00;2.90;;;;;;;5.58;88.74;100936.67;105366;1289;73339;-79
2022/10/10 02:33:18;;;;;;;6.40;3.00;;;;;;;5.59;88.73;100932.18;105443;1297;72454;-79
2022/10/10 02:35:48;;;;;;;6.40;3.00;;;;;;;5.61;88.83;100934.83;105288;1299;72057;-78
2022/10/10 02:38:16;;;;;;;9.60;3.10;;;;;;;5.62;88.93;100932.59;105163;1297;62089;-79
2022/10/10 02:40:46;;;;;;;10.40;3.10;;;;;;;5.62;88.65;100925.23;105157;1297;60462;-79
2022/10/10 02:43:14;;;;;;;7.80;3.00;;;;;;;5.62;88.40;100923.69;105243;1297;73251;-79
2022/10/10 02:45:41;;;;;;;7.90;3.10;;;;;;;5.63;88.45;100921.84;105147;1297;69248;-79
2022/10/10 02:48:08;;;;;;;10.60;3.40;;;;;;;5.61;88.36;100918.12;105135;1290;72834;-79
2022/10/10 02:50:35;;;;;;;8.80;3.30;;;;;;;5.61;88.43;100914.09;105196;1300;61218;-79
2022/10/10 02:53:01;;;;;;;12.20;3.30;;;;;;;5.61;88.57;100914.65;105193;1284;59955;-79
2022/10/10 02:55:27;;;;;;;7.70;2.90;;;;;;;5.60;88.45;100912.80;105102;1293;59473;-79
2022/10/10 02:57:54;;;;;;;8.60;3.20;;;;;;;5.60;88.66;100917.89;105330;1298;59083;-79
2022/10/10 03:00:20;;;;;;;9.90;3.00;;;;;;;5.60;88.33;100916.64;105165;1300;59013;-79
2022/10/10 03:02:47;;;;;;;8.00;3.40;;;;;;;5.60;88.22;100919.86;105284;1297;58960;-79
2022/10/10 03:05:14;;;;;;;7.90;3.40;;;;;;;5.59;88.25;100920.65;105161;1290;60673;-79
2022/10/10 03:07:40;;;;;;;10.90;3.50;;;;;;;5.57;88.14;100918.84;105199;1297;75969;-79
2022/10/10 03:10:08;;;;;;;8.90;3.30;;;;;;;5.55;88.17;100921.71;105304;1297;58933;-78
2022/10/10 03:12:34;;;;;;;8.50;3.10;;;;;;;5.53;88.12;100922.21;105325;1297;72587;-79
2022/10/10 03:15:01;;;;;;;9.50;3.40;;;;;;;5.52;88.37;100921.61;105305;1291;62156;-79
2022/10/10 03:17:27;;;;;;;11.30;3.70;;;;;;;5.50;88.59;100915.60;105295;1297;58866;-78
2022/10/10 03:19:54;;;;;;;8.30;3.30;;;;;;;5.49;88.46;100913.95;105210;1292;59986;-79
2022/10/10 03:22:20;;;;;;;6.20;3.50;;;;;;;5.48;88.65;100907.87;105201;1298;59165;-79
2022/10/10 03:24:47;;;;;;;9.00;3.40;;;;;;;5.48;89.04;100908.09;105130;1296;59246;-79
2022/10/10 03:27:13;;;;;;;10.60;3.40;;;;;;;5.46;88.84;100905.46;105304;1297;59439;-79
2022/10/10 03:29:40;;;;;;;10.20;3.30;;;;;;;5.45;88.82;100906.59;105339;1296;59228;-79
2022/10/10 03:32:06;;;;;;;8.70;3.20;;;;;;;5.45;88.83;100903.83;105328;1290;59137;-80
2022/10/10 03:34:36;;;;;;;10.40;3.10;;;;;;;5.44;88.83;100906.14;105314;1283;71393;-79
2022/10/10 03:37:03;;;;;;;8.60;3.30;;;;;;;5.44;88.85;100904.88;105319;1297;58968;-79
2022/10/10 03:39:29;;;;;;;9.00;3.10;;;;;;;5.45;88.85;100901.86;105149;1300;59018;-80
2022/10/10 03:41:55;;;;;;;9.30;3.60;;;;;;;5.45;88.86;100901.53;105430;1297;59060;-80
2022/10/10 03:44:22;;;;;;;8.90;3.60;;;;;;;5.44;88.76;100897.79;104665;1299;686358;-79
2022/10/10 03:46:49;;;;;;;7.70;3.40;;;;;;;5.41;88.72;100898.86;105317;1296;59484;-79
2022/10/10 03:49:15;;;;;;;9.80;3.60;;;;;;;5.40;89.09;100897.39;105192;1283;59252;-79
2022/10/10 03:51:42;;;;;;;12.20;4.00;;;;;;;5.40;89.11;100899.33;105174;1293;60094;-79
2022/10/10 03:54:08;;;;;;;8.20;3.90;;;;;;;5.40;89.32;100894.41;105328;1297;59417;-79
2022/10/10 03:56:35;;;;;;;9.00;4.00;;;;;;;5.41;89.45;100897.67;105131;1297;75577;-79
2022/10/10 03:59:02;;;;;;;12.00;4.30;;;;;;;5.41;89.45;100900.30;105328;1297;71655;-79
2022/10/10 04:01:29;;;;;;;13.60;4.30;;;;;;;5.41;89.51;100895.34;105361;1296;71422;-79
2022/10/10 04:03:56;;;;;;;8.90;4.00;;;;;;;5.41;89.45;100895.70;105136;1300;59011;-79
2022/10/10 04:06:22;;;;;;;10.60;4.50;;;;;;;5.42;89.48;100889.69;105192;1297;59025;-79
2022/10/10 04:08:49;;;;;;;9.70;4.20;;;;;;;5.42;89.38;100889.13;105328;1293;60722;-80
2022/10/10 04:11:15;;;;;;;9.20;4.20;;;;;;;5.42;89.30;100887.39;105159;1297;71811;-79
2022/10/10 04:13:42;;;;;;;7.70;3.90;;;;;;;5.42;89.22;100884.63;105194;1298;70953;-79
2022/10/10 04:16:08;;;;;;;12.10;4.20;;;;;;;5.40;89.14;100884.90;105235;1300;59895;-78
2022/10/10 04:18:35;;;;;;;9.50;3.80;;;;;;;5.38;89.16;100881.10;105230;1300;58969;-78
2022/10/10 04:21:03;;;;;;;9.80;3.80;;;;;;;5.37;89.23;100877.48;105410;1297;59774;-78
2022/10/10 04:23:30;;;;;;;9.40;3.70;;;;;;;5.36;89.30;100871.27;105527;1292;71694;-78
2022/10/10 04:25:57;;;;;;;10.50;4.00;;;;;;;5.34;89.31;100865.46;105522;1292;72691;-79
2022/10/10 04:28:23;;;;;;;8.60;4.20;;;;;;;5.33;89.33;100861.17;105485;1297;59460;-79
2022/10/10 04:30:50;;;;;;;8.70;4.00;;;;;;;5.33;89.41;100858.07;105314;1297;59862;-78
2022/10/10 04:33:16;;;;;;;9.00;3.80;;;;;;;5.32;89.51;100855.99;105238;1300;72092;-78
2022/10/10 04:35:46;;;;;;;10.10;4.20;;;;;;;5.32;89.53;100859.70;105186;1292;59464;-79
2022/10/10 04:38:12;;;;;;;11.10;4.00;;;;;;;5.33;89.53;100860.48;105101;1302;73319;-78
2022/10/10 04:40:39;;;;;;;10.90;4.10;;;;;;;5.32;89.40;100861.46;105067;1299;59009;-78
2022/10/10 04:43:05;;;;;;;9.40;4.00;;;;;;;5.31;89.40;100858.73;105342;1297;59003;-78
2022/10/10 04:45:31;;;;;;;11.50;4.10;;;;;;;5.31;89.33;100854.66;105180;1300;59646;-78
2022/10/10 04:48:03;;;;;;;13.40;4.30;;;;;;;5.31;89.24;100851.73;105368;1290;70543;-78
2022/10/10 04:50:29;;;;;;;11.20;4.50;;;;;;;5.29;89.18;100853.95;105237;1296;70786;-79
2022/10/10 04:52:55;;;;;;;10.00;4.30;;;;;;;5.27;89.21;100849.59;105298;1295;58883;-78
2022/10/10 04:55:22;;;;;;;12.50;4.30;;;;;;;5.27;89.13;100846.46;105107;1297;59042;-79
2022/10/10 04:57:48;;;;;;;10.10;3.90;;;;;;;5.25;89.31;100839.98;105367;1289;58952;-79
2022/10/10 05:00:15;;;;;;;8.90;3.80;;;;;;;5.22;89.49;100839.52;105306;1299;59462;-78
2022/10/10 05:02:42;;;;;;;8.80;3.90;;;;;;;5.20;89.59;100838.64;105190;1298;58875;-79
2022/10/10 05:05:09;;;;;;;10.20;4.50;;;;;;;5.19;89.46;100838.55;105200;1293;60468;-79
2022/10/10 05:07:35;;;;;;;8.60;4.10;;;;;;;5.18;89.65;100837.62;105277;1296;60743;-77
2022/10/10 05:10:02;;;;;;;9.00;4.10;;;;;;;5.16;89.72;100834.81;105244;1295;59389;-79
2022/10/10 05:12:29;;;;;;;9.10;3.90;;;;;;;5.15;90.07;100836.14;105151;1287;69601;-78
2022/10/10 05:14:55;;;;;;;10.80;4.80;;;;;;;5.14;90.64;100830.27;105197;1299;59083;-78
2022/10/10 05:17:22;;;;;;;9.70;4.20;;;;;;;5.14;90.62;100826.53;105215;1289;59173;-78
2022/10/10 05:19:50;;;;;;;10.50;4.20;;;;;;;5.15;90.96;100825.79;105327;1297;59276;-78
2022/10/10 05:22:16;;;;;;;8.80;4.20;;;;;;;5.16;91.35;100821.52;105165;1297;76011;-78
2022/10/10 05:24:43;;;;;;;9.60;4.10;;;;;;;5.17;91.81;100821.95;105314;1297;61071;-78
2022/10/10 05:27:09;;;;;;;10.20;4.80;;;;;;;5.20;91.78;100816.41;105129;1297;71345;-78
2022/10/10 05:29:36;;;;;;;9.80;4.50;;;;;;;5.22;91.52;100814.98;105179;1297;59237;-78
2022/10/10 05:32:03;;;;;;;13.70;5.00;;;;;;;5.25;91.43;100812.08;105170;1290;59751;-78
2022/10/10 05:34:35;;;;;;;11.60;5.10;;;;;;;5.28;91.22;100807.59;105171;1293;75850;-74
2022/10/10 05:37:02;;;;;;;11.00;5.20;;;;;;;5.32;91.06;100809.89;105100;1296;59153;-74
2022/10/10 05:39:28;;;;;;;9.80;4.70;;;;;;;5.36;91.16;100807.65;105306;1295;59116;-74
2022/10/10 05:41:55;;;;;;;15.30;7.80;;;;;;;5.40;91.00;100806.70;105117;1303;59991;-74
2022/10/10 05:44:21;;;;;;;14.90;8.80;;;;;;;5.46;91.05;100802.50;105325;1297;59526;-74
2022/10/10 05:46:47;;;;;;;9.70;4.90;;;;;;;5.51;90.78;100801.69;105195;1296;59766;-75
2022/10/10 05:49:14;;;;;;;10.80;4.70;;;;;;;5.56;90.58;100803.31;105239;1296;59005;-74
2022/10/10 05:51:40;;;;;;;11.10;5.10;;;;;;;5.61;90.38;100800.25;105207;1290;59424;-74
2022/10/10 05:54:07;;;;;;;10.20;5.10;;;;;;;5.65;90.19;100799.89;105285;1296;69690;-74
2022/10/10 05:56:34;;;;;;;9.40;5.00;;;;;;;5.65;89.73;100802.65;105211;1297;60261;-74
2022/10/10 05:59:01;;;;;;;11.70;4.50;;;;;;;5.66;89.38;100800.19;105435;1291;73603;-74
2022/10/10 06:01:27;;;;;;;11.50;5.00;;;;;;;5.68;89.53;100794.50;105229;1297;69873;-75
2022/10/10 06:03:54;;;;;;;8.50;4.30;;;;;;;5.72;89.47;100787.63;105211;1293;59390;-75
2022/10/10 06:06:23;;;;;;;8.20;4.00;;;;;;;5.78;89.55;100788.91;105246;1297;60002;-75
2022/10/10 06:08:51;;;;;;;7.60;4.10;;;;;;;5.82;89.45;100788.82;105221;1298;59195;-75
2022/10/10 06:11:19;;;;;;;8.30;3.80;;;;;;;5.88;89.28;100786.19;105293;1298;74545;-74
2022/10/10 06:13:48;;;;;;;7.20;3.20;;;;;;;5.87;88.97;100779.58;105249;1301;70125;-74
2022/10/10 06:16:15;;;;;;;9.70;3.60;;;;;;;5.85;89.88;100782.41;105192;1298;72806;-74
2022/10/10 06:18:42;;;;;;;10.50;3.80;;;;;;;5.89;89.56;100782.08;105237;1299;59767;-74
2022/10/10 06:21:09;;;;;;;8.50;3.30;;;;;;;5.95;89.41;100786.66;105318;1296;60731;-75
2022/10/10 06:23:36;;;;;;;10.60;3.20;;;;;;;6.04;89.59;100789.99;105260;1298;73473;-75
2022/10/10 06:26:03;;;;;;;7.70;3.50;;;;;;;6.13;89.52;100788.09;105228;1299;59760;-75
2022/10/10 06:28:30;;;;;;;7.40;3.00;;;;;;;6.25;89.57;100789.64;105241;1294;71265;-75
2022/10/10 06:31:01;;;;;;;6.70;3.10;;;;;;;6.38;89.49;100791.95;105269;1299;59779;-74
2022/10/10 06:33:28;;;;;;;7.60;2.70;;;;;;;6.51;89.34;100794.01;105308;1297;59342;-75
2022/10/10 06:35:55;;;;;;;6.20;2.60;;;;;;;6.66;89.09;100792.41;105219;1297;72203;-75
2022/10/10 06:38:21;;;;;;;6.00;2.60;;;;;;;6.80;88.97;100794.11;105292;1294;70364;-75
2022/10/10 06:40:48;;;;;;;5.00;2.50;;;;;;;6.95;88.70;100796.17;105400;1297;72544;-75
2022/10/10 06:43:15;;;;;;;4.60;2.60;;;;;;;7.09;88.35;100800.36;105080;1299;60666;-74
2022/10/10 06:45:45;;;;;;;4.60;2.70;;;;;;;7.24;88.09;100796.66;105402;1298;60286;-74
2022/10/10 06:48:13;;;;;;;6.10;2.70;;;;;;;7.39;87.68;100797.47;105292;1297;73558;-75
2022/10/10 06:50:39;;;;;;;4.00;2.20;;;;;;;7.52;87.30;100799.23;105201;1299;68919;-74
2022/10/10 06:53:06;;;;;;;5.60;2.40;;;;;;;7.65;86.91;100801.40;105272;1298;72582;-75
2022/10/10 06:55:33;;;;;;;4.70;2.30;;;;;;;7.79;86.55;100803.06;105281;1295;60253;-74
2022/10/10 06:57:59;;;;;;;7.20;2.30;;;;;;;7.92;86.24;100799.89;105452;1295;59364;-75
2022/10/10 07:00:26;;;;;;;4.10;2.00;;;;;;;8.05;85.98;100803.38;105395;1290;59055;-75
2022/10/10 07:02:52;;;;;;;5.20;2.40;;;;;;;8.19;85.74;100805.70;105245;1302;60117;-75
2022/10/10 07:05:19;;;;;;;7.80;2.30;;;;;;;8.33;85.44;100803.66;105247;1298;71798;-75
2022/10/10 07:07:46;;;;;;;4.80;2.50;;;;;;;8.47;85.41;100801.27;105404;1296;58794;-74
2022/10/10 07:10:14;;;;;;;6.50;2.60;;;;;;;8.61;84.86;100804.38;105310;1290;62396;-75
2022/10/10 07:12:41;;;;;;;7.30;2.30;;;;;;;8.75;84.64;100803.84;105273;1299;74539;-75
2022/10/10 07:15:10;;;;;;;3.70;2.10;;;;;;;8.91;84.48;100803.85;105206;1289;70936;-75
2022/10/10 07:17:37;;;;;;;5.10;2.10;;;;;;;9.09;83.79;100799.56;105223;1302;71334;-76
2022/10/10 07:20:04;;;;;;;5.10;2.30;;;;;;;9.24;83.71;100800.27;105445;1298;59076;-75
2022/10/10 07:22:30;;;;;;;4.20;1.90;;;;;;;9.39;82.59;100796.91;105240;1299;59001;-75
2022/10/10 07:24:57;;;;;;;4.90;1.90;;;;;;;9.53;82.13;100795.36;105187;1301;59070;-75
2022/10/10 07:27:23;;;;;;;4.80;2.10;;;;;;;9.68;81.79;100789.99;105268;1296;58925;-75
2022/10/10 07:29:50;;;;;;;4.50;2.00;;;;;;;9.84;80.38;100788.31;105410;1295;68193;-76
2022/10/10 07:32:16;;;;;;;4.10;2.00;;;;;;;10.00;79.64;100793.99;105307;1295;59681;-77
2022/10/10 07:34:42;;;;;;;5.40;2.10;;;;;;;10.17;79.29;100802.73;105250;1296;59156;-76
2022/10/10 07:37:09;;;;;;;5.60;2.20;;;;;;;10.32;78.28;100804.48;105291;1298;59341;-76
2022/10/10 07:39:35;;;;;;;5.20;2.10;;;;;;;10.47;77.82;100797.15;105260;1299;59236;-76
2022/10/10 07:42:02;;;;;;;4.60;2.30;;;;;;;10.63;77.32;100800.96;105186;1298;58921;-75
2022/10/10 07:44:29;;;;;;;4.80;2.10;;;;;;;10.77;76.47;100794.58;105265;1295;58858;-75
2022/10/10 07:46:59;;;;;;;5.90;2.30;;;;;;;10.90;75.67;100803.21;105237;1297;59500;-75
2022/10/10 07:49:26;;;;;;;4.80;2.40;;;;;;;11.03;75.42;100801.94;105274;1301;58875;-75
2022/10/10 07:51:53;;;;;;;5.00;2.20;;;;;;;11.18;75.12;100798.87;105265;1299;69293;-76
2022/10/10 07:54:27;;;;;;;5.50;2.20;;;;;;;11.33;74.84;100797.66;105489;1299;72804;-75
2022/10/10 07:56:54;;;;;;;5.60;2.60;;;;;;;11.48;74.34;100793.06;105311;1296;60985;-75
2022/10/10 07:59:21;;;;;;;6.50;2.40;;;;;;;11.57;73.05;100791.63;105275;1300;59045;-75
2022/10/10 08:01:48;;;;;;;5.90;2.50;;;;;;;11.69;72.77;100783.64;105280;1297;74433;-75
2022/10/10 08:04:14;;;;;;;6.10;2.30;;;;;;;11.78;72.12;100781.44;105350;1301;69954;-75
2022/10/10 08:06:41;;;;;;;6.20;2.50;;;;;;;11.88;72.02;100779.70;105135;1300;73008;-76
2022/10/10 08:09:08;;;;;;;6.20;2.60;;;;;;;11.98;71.24;100778.31;105276;1301;61149;-75
2022/10/10 08:11:36;;;;;;;6.20;2.40;;;;;;;12.07;70.79;100774.08;105332;1298;59468;-75
2022/10/10 08:14:03;;;;;;;4.70;2.50;;;;;;;12.18;71.34;100770.13;105268;1303;73074;-78
2022/10/10 08:16:29;;;;;;;4.10;2.70;;;;;;;12.29;70.84;100767.57;105261;1299;71575;-77
2022/10/10 08:18:56;;;;;;;5.60;2.40;;;;;;;12.34;70.29;100766.05;105214;1299;58949;-76
2022/10/10 08:21:23;;;;;;;5.20;2.50;;;;;;;12.44;70.40;100760.77;105309;1294;61952;-75
2022/10/10 08:23:49;;;;;;;6.50;2.40;;;;;;;12.53;69.72;100765.55;105283;1296;59161;-75
2022/10/10 08:26:18;;;;;;;7.10;2.20;;;;;;;12.57;68.96;100766.30;105217;1296;73717;-75
2022/10/10 08:28:47;;;;;;;5.10;2.20;;;;;;;12.65;68.74;100765.36;105264;1295;71359;-75
2022/10/10 08:31:19;;;;;;;4.70;2.10;;;;;;;12.75;68.49;100767.15;105331;1291;72573;-75
2022/10/10 08:33:48;;;;;;;6.00;2.30;;;;;;;12.88;68.64;100768.48;105198;1300;61210;-75
2022/10/10 08:36:20;;;;;;;3.40;1.90;;;;;;;12.94;67.45;100767.04;105203;1297;60166;-75
2022/10/10 08:38:47;;;;;;;3.80;1.90;;;;;;;13.00;67.54;100764.33;105220;1291;73424;-76
2022/10/10 08:41:26;;;;;;;4.10;1.90;;;;;;;13.08;67.13;100768.70;105451;1297;71069;-75
2022/10/10 08:44:15;;;;;;;5.40;2.00;;;;;;;13.14;66.77;100766.34;105255;1301;71375;-75
2022/10/10 08:46:54;;;;;;;4.80;2.10;;;;;;;13.25;66.65;100764.60;105389;1297;60514;-76
2022/10/10 08:49:39;;;;;;;5.80;2.20;;;;;;;13.37;66.61;100762.20;105201;1297;60669;-76
2022/10/10 08:52:21;;;;;;;6.00;2.30;;;;;;;13.49;66.05;100757.88;105272;1297;72468;-76
2022/10/10 08:54:48;;;;;;;2.80;1.80;;;;;;;13.64;66.22;100754.05;105334;1299;71846;-76
2022/10/10 08:57:25;;;;;;;5.00;2.30;;;;;;;13.72;65.23;100749.69;105314;1292;72536;-76
2022/10/10 08:59:58;;;;;;;6.80;2.30;;;;;;;13.78;65.20;100747.52;105237;1289;60437;-76
2022/10/10 09:02:49;;;;;;;5.00;2.10;;;;;;;13.87;65.06;100744.36;105199;1303;60814;-76
2022/10/10 09:05:44;;;;;;;4.80;2.40;;;;;;;13.96;64.82;100750.34;105284;1296;73392;-76
2022/10/10 09:08:21;;;;;;;5.40;2.30;;;;;;;13.97;64.21;100745.91;105518;1291;71320;-75
2022/10/10 09:11:00;;;;;;;5.70;2.30;;;;;;;14.06;65.00;100746.40;105697;1281;71520;-76
2022/10/10 09:13:35;;;;;;;5.50;2.30;;;;;;;14.19;64.65;100746.57;105432;1295;61723;-76
2022/10/10 09:16:33;;;;;;;7.20;2.50;;;;;;;14.23;63.56;100748.77;105291;1298;60709;-76
2022/10/10 09:19:38;;;;;;;3.80;2.10;;;;;;;14.33;63.88;100750.33;105331;1299;74209;-76
2022/10/10 09:22:12;;;;;;;4.00;1.90;;;;;;;14.39;63.09;100751.42;105304;1299;70199;-76
2022/10/10 09:24:41;;;;;;;4.30;2.20;;;;;;;14.41;63.06;100746.50;105304;1295;72827;-76
2022/10/10 09:27:14;;;;;;;4.40;1.90;;;;;;;14.52;63.14;100744.55;105403;1297;63104;-76
2022/10/10 09:29:41;;;;;;;4.60;2.10;;;;;;;14.64;63.17;100741.79;105217;1297;59068;-76
2022/10/10 09:32:44;;;;;;;5.40;2.20;;;;;;;14.72;62.21;100735.80;105407;1301;59144;-76
2022/10/10 09:35:19;;;;;;;4.20;1.90;;;;;;;14.78;62.34;100727.77;105202;1298;72232;-76
2022/10/10 09:37:49;;;;;;;5.50;2.40;;;;;;;14.84;62.02;100724.95;105441;1289;72737;-76
2022/10/10 09:40:23;;;;;;;4.40;2.10;;;;;;;14.95;62.24;100725.09;105208;1293;60928;-76
2022/10/10 09:42:50;;;;;;;6.50;2.30;;;;;;;15.06;61.40;100729.26;105420;1291;58868;-76
2022/10/10 09:45:31;;;;;;;3.60;2.10;;;;;;;15.14;61.39;100726.15;105319;1297;74629;-76
2022/10/10 09:47:58;;;;;;;5.60;2.10;;;;;;;15.24;61.35;100725.41;105306;1291;71085;-76
2022/10/10 09:50:25;;;;;;;5.00;2.20;;;;;;;15.27;60.48;100720.48;105492;1290;59095;-76
2022/10/10 09:52:52;;;;;;;4.90;2.00;;;;;;;15.32;60.51;100718.42;105158;1301;60461;-76
2022/10/10 09:55:33;;;;;;;3.30;1.90;;;;;;;15.38;60.58;100717.93;105475;1297;59086;-76
2022/10/10 09:58:12;;;;;;;6.50;2.00;;;;;;;15.49;60.35;100716.98;105231;1298;75493;-76
2022/10/10 10:00:38;;;;;;;4.80;2.00;;;;;;;15.58;60.21;100719.06;105408;1297;70921;-76
2022/10/10 10:03:20;;;;;;;3.60;2.00;;;;;;;15.66;59.94;100718.11;105235;1290;72433;-76
2022/10/10 10:05:59;;;;;;;4.60;2.00;;;;;;;15.75;60.06;100720.68;105330;1292;60818;-76
2022/10/10 10:08:29;;;;;;;7.10;2.10;;;;;;;15.90;60.00;100716.50;105243;1298;59845;-76
2022/10/10 10:10:57;;;;;;;5.10;2.00;;;;;;;15.98;59.00;100718.08;105274;1291;74424;-76
2022/10/10 10:13:35;;;;;;;5.40;2.10;;;;;;;16.05;58.95;100724.39;105334;1299;70644;-75
2022/10/10 10:16:11;;;;;;;6.60;2.10;;;;;;;16.08;58.15;100729.02;105255;1296;70276;-75
2022/10/10 10:18:43;;;;;;;6.10;2.40;;;;;;;16.12;58.39;100727.47;105266;1297;60693;-75
2022/10/10 10:21:24;;;;;;;4.00;2.00;;;;;;;16.17;58.20;100733.39;105198;1297;59209;-75
2022/10/10 10:24:01;;;;;;;6.30;2.40;;;;;;;16.20;58.02;100732.38;105270;1297;73542;-75
2022/10/10 10:26:40;;;;;;;5.60;2.30;;;;;;;16.23;57.95;100732.67;105321;1298;71356;-75
2022/10/10 10:29:30;;;;;;;6.00;2.20;;;;;;;16.28;58.04;100729.98;105402;1297;72516;-75
2022/10/10 10:32:15;;;;;;;3.90;1.70;;;;;;;16.39;58.10;100726.70;105250;1298;59146;-77
2022/10/10 10:35:00;;;;;;;5.40;2.10;;;;;;;16.54;58.54;100727.14;105422;1297;59123;-77
2022/10/10 10:37:42;;;;;;;3.20;1.80;;;;;;;16.72;57.90;100727.88;105239;1296;74499;-77
2022/10/10 10:40:16;;;;;;;3.90;1.90;;;;;;;16.80;56.75;100736.12;105316;1298;69096;-77
2022/10/10 10:43:20;;;;;;;4.80;1.90;;;;;;;16.83;56.59;100729.28;105305;1290;70666;-77
2022/10/10 10:46:05;;;;;;;5.50;2.10;;;;;;;16.92;56.63;100735.54;105423;1297;60278;-77
2022/10/10 10:48:45;;;;;;;4.90;1.70;;;;;;;16.97;56.73;100733.85;105431;1297;59383;-77
2022/10/10 10:51:46;;;;;;;4.80;1.80;;;;;;;17.11;56.31;100729.88;105247;1297;74559;-77
2022/10/10 10:54:31;;;;;;;4.40;1.70;;;;;;;17.23;56.55;100730.54;105249;1300;70482;-74
2022/10/10 10:57:08;;;;;;;4.90;2.00;;;;;;;17.40;56.04;100726.52;105426;1297;72876;-77
2022/10/10 11:00:04;;;;;;;10.50;3.90;;;;;;;17.39;55.31;100719.92;105410;1298;60170;-77
2022/10/10 11:03:21;;;;;;;5.90;1.60;;;;;;;17.44;55.84;100719.18;105143;1294;60531;-77
2022/10/10 11:06:26;;;;;;;5.00;1.70;;;;;;;17.54;55.45;100715.96;105251;1297;75963;-77
2022/10/10 11:08:53;;;;;;;5.00;2.00;;;;;;;17.53;54.98;100718.41;105314;1300;70877;-77
2022/10/10 11:11:32;;;;;;;6.50;1.90;;;;;;;17.48;54.89;100717.82;105373;1296;58865;-77
2022/10/10 11:14:07;;;;;;;4.50;1.80;;;;;;;17.53;55.12;100716.20;105534;1289;60164;-79
2022/10/10 11:16:41;;;;;;;4.90;1.60;;;;;;;17.59;54.97;100709.64;105219;1290;60119;-79
2022/10/10 11:19:26;;;;;;;3.10;1.50;;;;;;;17.73;55.23;100712.48;105333;1293;73475;-80
2022/10/10 11:21:59;;;;;;;4.20;1.50;;;;;;;17.83;54.31;100704.64;105393;1292;69910;-79
2022/10/10 11:24:39;;;;;;;4.60;1.50;;;;;;;17.90;54.40;100708.88;105514;1295;70151;-79
2022/10/10 11:27:31;;;;;;;4.00;1.40;;;;;;;18.03;54.35;100702.69;105382;1292;59807;-79
2022/10/10 11:30:19;;;;;;;5.70;1.70;;;;;;;18.14;53.80;100700.38;105548;1297;58916;-79
2022/10/10 11:32:51;;;;;;;3.50;1.60;;;;;;;18.38;52.70;100699.23;105472;1296;76540;-79
2022/10/10 11:35:25;;;;;;;3.70;1.50;;;;;;;18.66;52.17;100702.10;105476;1297;69725;-80
2022/10/10 11:38:22;;;;;;;4.00;1.70;;;;;;;19.07;51.54;100703.01;105362;1300;71594;-79
2022/10/10 11:41:00;;;;;;;5.60;1.70;;;;;;;19.67;50.51;100701.94;105475;1297;59180;-79
2022/10/10 11:43:45;;;;;;;4.60;1.60;;;;;;;20.23;49.15;100703.75;105443;1297;61373;-78